Time;durP1;ratioP1;P1;durP2;ratioP2;P2;SDS_P1;SDS_P2;PMS_P1;PMS_P2;Temp;Humidity;BMP_temperature;BMP_pressure;BME280_temperature;BME280_humidity;BME280_pressure;Samples;Min_cycle;Max_cycle;Signal;HPM_P1;HPM_P2
2023/01/05 00:02:11;;;;;;;5.13;2.37;;;;;;;9.13;100.00;99492.59;3422732;85;98621;-90
2023/01/05 00:07:12;;;;;;;8.75;2.77;;;;;;;9.13;100.00;99479.44;3426346;85;34680;-90
2023/01/05 00:22:53;;;;;;;5.85;1.90;;;;;;;9.11;100.00;99461.98;3417292;84;98614;-88
2023/01/05 00:27:56;;;;;;;7.70;2.58;;;;;;;9.10;100.00;99450.05;3423156;85;31520;-89
2023/01/05 00:32:57;;;;;;;5.83;1.50;;;;;;;9.09;100.00;99443.77;3397081;84;98544;-88
2023/01/05 00:37:58;;;;;;;7.17;2.00;;;;;;;9.08;100.00;99433.16;3427150;86;25873;-91
2023/01/05 00:42:59;;;;;;;4.67;1.67;;;;;;;9.08;100.00;99435.91;3414741;85;98555;-87
2023/01/05 00:48:00;;;;;;;6.43;1.70;;;;;;;9.05;100.00;99415.52;3427489;86;35261;-87
2023/01/05 00:53:01;;;;;;;3.95;2.00;;;;;;;9.05;100.00;99420.24;3423709;85;98313;-88
2023/01/05 00:58:01;;;;;;;3.00;1.50;;;;;;;9.05;100.00;99416.13;3415615;86;34795;-91
2023/01/05 01:03:03;;;;;;;4.80;1.70;;;;;;;9.05;100.00;99437.48;3423323;85;98591;-89
2023/01/05 01:08:03;;;;;;;3.37;1.73;;;;;;;9.07;100.00;99439.84;3429056;85;35161;-89
2023/01/05 01:13:04;;;;;;;2.70;1.07;;;;;;;9.03;100.00;99491.98;3422281;84;98600;-86
2023/01/05 01:18:05;;;;;;;1.12;0.72;;;;;;;8.98;100.00;99444.33;3429358;84;34692;-87
2023/01/05 01:23:06;;;;;;;1.40;0.40;;;;;;;8.83;100.00;99481.75;3421362;85;98943;-86
2023/01/05 01:28:07;;;;;;;0.90;0.30;;;;;;;8.65;100.00;99471.28;3427763;85;25632;-86
2023/01/05 01:33:08;;;;;;;1.70;0.40;;;;;;;8.47;100.00;99471.81;3423577;84;98260;-86
2023/01/05 01:38:08;;;;;;;2.23;0.50;;;;;;;8.36;100.00;99459.44;3424753;86;25675;-86
2023/01/05 01:43:20;;;;;;;1.73;0.40;;;;;;;8.26;100.00;99457.44;3336324;87;98524;-87
2023/01/05 01:48:21;;;;;;;2.17;0.47;;;;;;;8.20;100.00;99456.80;3421804;86;34716;-86
2023/01/05 01:53:35;;;;;;;3.50;0.77;;;;;;;8.16;100.00;99442.27;3423132;85;98485;-85
2023/01/05 01:58:37;;;;;;;1.02;0.60;;;;;;;8.13;100.00;99432.86;3430421;86;34758;-87
2023/01/05 02:03:38;;;;;;;4.20;0.70;;;;;;;8.12;100.00;99429.15;3420396;85;98539;-85
2023/01/05 02:08:39;;;;;;;0.93;0.33;;;;;;;8.12;100.00;99427.18;3427755;86;35352;-86
2023/01/05 02:14:16;;;;;;;1.40;0.50;;;;;;;8.11;100.00;99428.35;3403576;84;98262;-89
2023/01/05 02:19:54;;;;;;;2.75;0.82;;;;;;;8.15;100.00;99431.11;3423924;84;26004;-88
2023/01/05 02:25:26;;;;;;;3.55;0.75;;;;;;;8.16;100.00;99425.25;3422460;85;98408;-87
2023/01/05 02:30:58;;;;;;;3.42;0.90;;;;;;;8.24;100.00;99424.13;3427582;86;34629;-88
2023/01/05 02:36:26;;;;;;;4.40;1.20;;;;;;;8.29;100.00;99417.51;3420436;86;98117;-87
2023/01/05 02:42:03;;;;;;;4.70;1.15;;;;;;;8.32;100.00;99429.05;3417392;84;98498;-86
2023/01/05 02:47:28;;;;;;;;;;;;;;;8.37;100.00;99419.09;3428193;86;25857;-88
2023/01/05 02:52:34;;;;;;;5.42;1.77;;;;;;;8.39;100.00;99411.28;3428119;84;84803;-87
2023/01/05 02:57:48;;;;;;;4.12;0.80;;;;;;;8.39;100.00;99409.91;3420428;86;25972;-86
2023/01/05 03:02:57;;;;;;;7.67;1.15;;;;;;;8.40;100.00;99409.50;3416994;84;98227;-88
2023/01/05 03:08:06;;;;;;;5.00;0.85;;;;;;;8.43;100.00;99412.06;3424370;86;34635;-88
2023/01/05 03:18:32;;;;;;;4.87;0.80;;;;;;;8.48;100.00;99409.73;3423098;85;34675;-89
2023/01/05 03:40:16;;;;;;;4.65;1.20;;;;;;;8.50;100.00;99398.39;3457677;84;30946;-89
2023/01/05 03:45:18;;;;;;;;;;;;;;;8.49;100.00;99400.34;3450289;85;97123;-93
2023/01/05 03:50:19;;;;;;;6.92;1.60;;;;;;;8.52;100.00;99398.20;3457953;84;34688;-91
2023/01/05 03:55:20;;;;;;;6.93;1.10;;;;;;;8.54;100.00;99386.83;3446615;84;98306;-92
2023/01/05 04:00:21;;;;;;;6.85;1.40;;;;;;;8.55;100.00;99391.92;3452185;84;25664;-90
2023/01/05 04:05:22;;;;;;;5.80;1.50;;;;;;;8.58;100.00;99391.16;3451256;85;98286;-88
2023/01/05 04:10:23;;;;;;;6.57;1.27;;;;;;;8.60;100.00;99394.30;3457042;84;25663;-92
2023/01/05 04:15:24;;;;;;;2.87;1.30;;;;;;;8.63;100.00;99400.96;3453920;83;98345;-89
2023/01/05 04:20:25;;;;;;;7.23;1.63;;;;;;;8.66;100.00;99403.70;3406455;85;25711;-90
2023/01/05 04:25:26;;;;;;;5.20;1.40;;;;;;;8.68;100.00;99399.21;3452138;84;98052;-92
2023/01/05 04:30:27;;;;;;;6.60;1.70;;;;;;;8.71;100.00;99394.30;3461352;85;32400;-90
2023/01/05 04:35:30;;;;;;;5.10;1.37;;;;;;;8.73;100.00;99389.23;3457550;82;98011;-92
2023/01/05 04:40:31;;;;;;;5.37;1.53;;;;;;;8.76;100.00;99400.20;3463189;85;29434;-91
2023/01/05 04:45:34;;;;;;;5.10;1.60;;;;;;;8.77;100.00;99396.28;3424537;85;98639;-92
2023/01/05 04:50:35;;;;;;;6.83;1.72;;;;;;;8.78;100.00;99392.97;3457429;85;34649;-92
2023/01/05 04:55:36;;;;;;;11.77;2.70;;;;;;;8.78;100.00;99384.13;3457689;85;98176;-90
2023/01/05 05:00:37;;;;;;;7.17;1.77;;;;;;;8.80;100.00;99397.46;3455464;85;25945;-91
2023/01/05 05:05:37;;;;;;;9.57;1.70;;;;;;;8.80;100.00;99403.75;3456022;85;98227;-90
2023/01/05 05:10:38;;;;;;;10.50;2.10;;;;;;;8.82;100.00;99406.08;3459559;84;33086;-90
2023/01/05 05:15:39;;;;;;;6.77;1.40;;;;;;;8.83;100.00;99405.70;3455282;85;98635;-92
2023/01/05 05:20:43;;;;;;;13.00;2.27;;;;;;;8.84;100.00;99399.03;3461170;85;32321;-92
2023/01/05 05:25:44;;;;;;;9.90;1.97;;;;;;;8.85;100.00;99409.43;3443794;84;99208;-92
2023/01/05 05:30:48;;;;;;;10.67;2.30;;;;;;;8.86;100.00;99400.02;3427516;81;32784;-89
2023/01/05 05:35:49;;;;;;;8.93;1.85;;;;;;;8.88;100.00;99408.66;3448930;84;98482;-92
2023/01/05 05:40:50;;;;;;;7.80;1.40;;;;;;;8.90;100.00;99412.55;3458292;84;25698;-90
2023/01/05 05:45:51;;;;;;;6.37;1.70;;;;;;;8.93;100.00;99428.83;3447749;84;98453;-91
2023/01/05 05:50:52;;;;;;;7.03;1.20;;;;;;;8.92;100.00;99428.63;3453727;84;25614;-90
2023/01/05 05:55:53;;;;;;;6.90;1.60;;;;;;;8.91;100.00;99436.67;3447195;84;98036;-89
2023/01/05 06:00:58;;;;;;;6.47;1.43;;;;;;;8.87;100.00;99436.67;3457224;84;32757;-88
2023/01/05 06:06:00;;;;;;;9.13;1.57;;;;;;;8.78;100.00;99445.85;3451458;84;98011;-90
2023/01/05 06:11:01;;;;;;;6.20;1.47;;;;;;;8.73;100.00;99452.32;3451371;84;98216;-91
2023/01/05 06:16:02;;;;;;;10.40;2.57;;;;;;;8.68;100.00;99456.20;3397525;85;26310;-89
2023/01/05 06:21:03;;;;;;;8.53;2.67;;;;;;;8.65;100.00;99463.85;3398124;85;98728;-88
2023/01/05 06:26:05;;;;;;;7.33;1.90;;;;;;;8.55;100.00;99468.71;3473080;83;25686;-94
2023/01/05 06:31:06;;;;;;;9.10;2.63;;;;;;;8.55;100.00;99468.71;3460225;84;98569;-96
2023/01/05 06:36:07;;;;;;;8.93;1.67;;;;;;;8.49;100.00;99471.62;3465976;84;27610;-94
2023/01/05 06:41:08;;;;;;;4.47;1.40;;;;;;;8.46;100.00;99471.62;3470608;84;98632;-93
2023/01/05 06:46:09;;;;;;;8.50;1.70;;;;;;;8.46;100.00;99475.73;3473890;84;32330;-94
2023/01/05 06:51:10;;;;;;;7.95;1.60;;;;;;;8.45;100.00;99468.08;3461336;84;98589;-92
2023/01/05 06:56:11;;;;;;;8.20;2.73;;;;;;;8.43;100.00;99465.52;3474806;84;32275;-92
2023/01/05 07:01:12;;;;;;;6.70;2.10;;;;;;;8.45;100.00;99475.53;3468308;84;98778;-92
2023/01/05 07:06:14;;;;;;;9.03;1.70;;;;;;;8.46;100.00;99480.61;3471535;84;32380;-95
2023/01/05 07:11:15;;;;;;;6.87;1.53;;;;;;;8.48;100.00;99487.88;3459408;84;98701;-91
2023/01/05 07:16:17;;;;;;;5.17;1.77;;;;;;;8.51;100.00;99482.98;3480250;80;32245;-91
2023/01/05 07:21:18;;;;;;;7.83;1.83;;;;;;;8.53;100.00;99503.97;3470908;84;98643;-92
2023/01/05 07:26:20;;;;;;;7.43;1.40;;;;;;;8.55;100.00;99502.19;3468666;84;32232;-93
2023/01/05 07:31:21;;;;;;;6.73;1.77;;;;;;;8.53;100.00;99503.97;3462067;82;98617;-93
2023/01/05 07:36:23;;;;;;;9.73;1.60;;;;;;;8.53;100.00;99508.66;3471576;84;33023;-89
2023/01/05 07:41:24;;;;;;;5.67;1.70;;;;;;;8.52;100.00;99505.15;3462813;84;98708;-91
2023/01/05 07:46:24;;;;;;;6.92;2.35;;;;;;;8.52;100.00;99502.41;3474369;84;34599;-89
2023/01/05 07:51:25;;;;;;;7.03;1.50;;;;;;;8.54;100.00;99518.45;3466891;84;98772;-89
2023/01/05 07:56:26;;;;;;;4.23;1.23;;;;;;;8.54;100.00;99521.19;3472471;84;32277;-92
2023/01/05 08:01:27;;;;;;;4.47;1.42;;;;;;;8.56;100.00;99522.98;3465654;84;98571;-93
2023/01/05 08:06:28;;;;;;;7.47;1.20;;;;;;;8.58;100.00;99528.28;3473559;84;27443;-92
2023/01/05 08:11:28;;;;;;;5.87;1.35;;;;;;;8.61;100.00;99537.70;3468185;81;98576;-90
2023/01/05 08:16:31;;;;;;;7.90;2.13;;;;;;;8.59;100.00;99546.30;3464524;85;26048;-90
2023/01/05 08:21:32;;;;;;;5.28;1.50;;;;;;;8.63;100.00;99557.28;3458751;84;98641;-92
2023/01/05 08:26:33;;;;;;;5.00;1.40;;;;;;;8.70;100.00;99568.28;3451886;84;26348;-91
2023/01/05 08:31:36;;;;;;;7.10;2.00;;;;;;;8.87;100.00;99581.29;3450611;84;98608;-91
2023/01/05 08:36:36;;;;;;;8.33;1.80;;;;;;;8.97;100.00;99573.12;3454508;84;32252;-92
2023/01/05 08:41:39;;;;;;;10.83;1.97;;;;;;;9.10;100.00;99578.45;3447095;84;98650;-91
2023/01/05 08:46:40;;;;;;;10.00;2.08;;;;;;;9.31;100.00;99585.38;3454094;84;32487;-92
2023/01/05 08:51:41;;;;;;;9.73;2.57;;;;;;;9.47;100.00;99580.31;3451956;84;98758;-93
2023/01/05 08:56:43;;;;;;;8.43;2.10;;;;;;;9.61;100.00;99589.95;3455515;84;25914;-91
2023/01/05 09:01:44;;;;;;;7.83;2.00;;;;;;;9.64;100.00;99586.41;3448381;84;97608;-92
2023/01/05 09:06:45;;;;;;;5.20;1.77;;;;;;;9.61;100.00;99603.69;3453594;84;25930;-92
2023/01/05 09:11:45;;;;;;;12.00;4.10;;;;;;;9.51;100.00;99609.95;3446753;84;98627;-88
2023/01/05 09:16:46;;;;;;;11.13;3.80;;;;;;;9.46;100.00;99613.64;3455785;84;25982;-93
2023/01/05 09:21:47;;;;;;;4.03;1.33;;;;;;;9.38;100.00;99625.20;3452340;84;98657;-90
2023/01/05 09:26:49;;;;;;;5.10;1.73;;;;;;;9.32;100.00;99620.49;3474473;84;25824;-92
2023/01/05 09:31:49;;;;;;;6.27;1.53;;;;;;;9.30;100.00;99620.87;3463184;84;98449;-91
2023/01/05 09:36:50;;;;;;;7.73;1.40;;;;;;;9.41;100.00;99633.25;3471370;84;26023;-91
2023/01/05 09:41:58;;;;;;;24.73;5.40;;;;;;;9.45;100.00;99639.55;3458207;84;98088;-93
2023/01/05 09:47:30;;;;;;;7.23;1.40;;;;;;;9.45;97.56;99642.29;3792982;74;25823;-83
2023/01/05 09:52:31;;;;;;;8.25;1.62;;;;;;;9.31;97.44;99651.84;3728137;76;98130;-86
2023/01/05 09:57:33;;;;;;;6.53;1.60;;;;;;;9.25;97.10;99643.78;3669373;78;25933;-83
2023/01/05 10:02:48;;;;;;;9.43;1.60;;;;;;;9.19;95.83;99651.63;3700909;78;98284;-87
2023/01/05 10:08:00;;;;;;;3.95;1.27;;;;;;;9.07;94.80;99640.19;3648116;79;31931;-87
2023/01/05 10:13:07;;;;;;;8.95;2.08;;;;;;;8.95;92.65;99630.93;3644440;79;98276;-91
2023/01/05 10:18:21;;;;;;;4.37;0.78;;;;;;;8.90;93.89;99630.69;3634408;79;31965;-89
2023/01/05 10:24:01;;;;;;;4.25;1.00;;;;;;;8.82;93.26;99626.92;3649615;79;98377;-86
2023/01/05 10:29:15;;;;;;;4.67;1.05;;;;;;;8.80;92.74;99640.25;3570006;79;31756;-86
2023/01/05 10:34:32;;;;;;;3.72;1.17;;;;;;;8.74;91.42;99624.76;3652012;79;98198;-86
2023/01/05 10:40:12;;;;;;;6.72;1.20;;;;;;;8.69;91.84;99627.86;3746438;78;31602;-87
2023/01/05 10:45:16;;;;;;;6.03;1.12;;;;;;;8.69;92.69;99630.60;3666033;78;98117;-85
2023/01/05 10:50:39;;;;;;;7.45;1.27;;;;;;;8.69;92.67;99622.95;3665670;79;31683;-87
2023/01/05 10:55:57;;;;;;;5.00;0.95;;;;;;;8.72;93.33;99624.33;3574084;80;98062;-86
2023/01/05 11:01:03;;;;;;;6.22;0.95;;;;;;;8.82;92.23;99625.55;3578018;81;31699;-83
2023/01/05 11:06:05;;;;;;;4.85;1.15;;;;;;;8.90;91.66;99616.97;3571843;81;25935;-86
2023/01/05 11:11:07;;;;;;;4.37;0.70;;;;;;;8.93;91.67;99631.30;3566593;81;97922;-85
2023/01/05 11:16:16;;;;;;;6.17;1.02;;;;;;;8.91;92.02;99624.62;3571390;81;31738;-85
2023/01/05 11:21:23;;;;;;;6.58;1.72;;;;;;;8.91;91.46;99626.00;3556440;81;97985;-84
2023/01/05 11:26:32;;;;;;;4.22;1.00;;;;;;;8.85;91.23;99635.20;3547988;81;31596;-83
2023/01/05 11:31:52;;;;;;;7.08;1.07;;;;;;;8.77;91.94;99642.41;3550841;81;97920;-85
2023/01/05 11:37:22;;;;;;;4.55;0.70;;;;;;;8.74;91.78;99623.95;3558853;81;31627;-83
2023/01/05 11:42:29;;;;;;;4.80;1.12;;;;;;;8.71;92.10;99623.34;3539584;81;98320;-91
2023/01/05 11:47:44;;;;;;;;;;;;;;;8.68;92.33;99614.52;3591333;80;25909;-84
2023/01/05 11:52:49;;;;;;;7.55;1.22;;;;;;;8.67;92.60;99623.32;3579592;80;84412;-87
2023/01/05 11:57:53;;;;;;;6.40;1.20;;;;;;;8.66;93.24;99628.61;3637875;80;32245;-88
2023/01/05 12:03:39;;;;;;;5.75;1.02;;;;;;;8.64;93.00;99624.68;3596422;79;98411;-89
2023/01/05 12:08:48;;;;;;;2.90;1.12;;;;;;;8.66;93.90;99625.07;3542766;80;31641;-87
2023/01/05 12:14:06;;;;;;;5.65;1.57;;;;;;;8.67;93.98;99634.89;3587863;79;97976;-83
2023/01/05 12:19:51;;;;;;;6.40;1.40;;;;;;;8.65;94.62;99636.64;3596781;80;31685;-87
2023/01/05 12:25:09;;;;;;;5.92;1.90;;;;;;;8.61;94.93;99641.92;3647952;79;98193;-87
2023/01/05 12:30:21;;;;;;;5.90;1.32;;;;;;;8.56;94.83;99642.27;3640767;79;32248;-85
2023/01/05 12:35:46;;;;;;;5.30;1.98;;;;;;;8.49;95.25;99650.44;3633645;80;98119;-86
2023/01/05 12:41:04;;;;;;;6.65;1.60;;;;;;;8.41;96.04;99657.82;3648372;79;31664;-83
2023/01/05 12:46:36;;;;;;;7.15;1.52;;;;;;;8.32;96.69;99661.49;3655524;79;31662;-85
2023/01/05 12:51:48;;;;;;;5.70;1.45;;;;;;;8.22;97.89;99678.63;3663940;79;98236;-84
2023/01/05 12:56:53;;;;;;;4.33;1.30;;;;;;;8.12;98.93;99688.89;3668151;79;31672;-86
2023/01/05 13:02:23;;;;;;;8.43;3.10;;;;;;;8.03;99.44;99705.44;3668216;79;98194;-84
2023/01/05 13:07:39;;;;;;;7.83;2.85;;;;;;;7.95;100.00;99713.38;3681596;79;32314;-83
2023/01/05 13:12:42;;;;;;;5.65;2.02;;;;;;;7.91;100.00;99729.02;3667794;79;98496;-84
2023/01/05 13:17:50;;;;;;;4.33;1.25;;;;;;;7.88;100.00;99733.29;3673928;79;31622;-84
2023/01/05 13:23:02;;;;;;;5.70;1.47;;;;;;;7.87;100.00;99733.66;3667086;79;98706;-86
2023/01/05 13:28:03;;;;;;;11.68;5.78;;;;;;;7.83;100.00;99751.42;3632093;80;31694;-86
2023/01/05 13:33:16;;;;;;;8.23;2.93;;;;;;;7.80;100.00;99750.02;3628889;80;98653;-83
2023/01/05 13:38:54;;;;;;;7.10;2.60;;;;;;;7.81;99.64;99751.00;3643690;80;31695;-85
2023/01/05 13:44:03;;;;;;;3.10;1.17;;;;;;;7.78;99.54;99764.66;3636377;80;98358;-87
2023/01/05 13:49:32;;;;;;;3.42;1.37;;;;;;;7.62;98.76;99772.28;3660811;79;31646;-83
2023/01/05 13:54:44;;;;;;;3.33;1.20;;;;;;;7.70;98.98;99806.23;3654973;79;97831;-81
2023/01/05 13:59:52;;;;;;;8.23;1.32;;;;;;;7.62;99.07;99839.38;3660006;79;31667;-85
2023/01/05 14:04:52;;;;;;;2.80;1.10;;;;;;;7.49;99.60;99847.63;3651452;79;97904;-81
2023/01/05 14:09:56;;;;;;;5.80;2.10;;;;;;;7.33;100.00;99883.38;3659448;79;26512;-84
2023/01/05 14:15:30;;;;;;;6.53;2.67;;;;;;;7.15;100.00;99906.16;3645532;79;98373;-84
2023/01/05 14:20:46;;;;;;;6.85;2.65;;;;;;;6.94;100.00;99928.48;3665182;79;32851;-82
2023/01/05 14:26:05;;;;;;;9.65;3.10;;;;;;;6.81;100.00;99944.06;3658664;79;98005;-83
2023/01/05 14:31:17;;;;;;;8.50;3.80;;;;;;;6.63;100.00;99968.90;3638140;79;98465;-82
2023/01/05 14:36:41;;;;;;;9.43;3.83;;;;;;;6.47;100.00;99986.77;3653736;79;31643;-87
2023/01/05 14:41:43;;;;;;;19.23;7.75;;;;;;;6.35;100.00;100001.14;3634351;79;98196;-83
2023/01/05 14:46:53;;;;;;;11.12;5.12;;;;;;;6.26;100.00;100016.94;3652486;79;32340;-82
2023/01/05 14:52:00;;;;;;;12.43;4.80;;;;;;;6.15;100.00;100036.41;3612166;80;99093;-80
2023/01/05 14:57:29;;;;;;;12.28;4.85;;;;;;;6.03;100.00;100052.92;3622245;79;32752;-82
2023/01/05 15:02:36;;;;;;;10.32;4.83;;;;;;;5.93;100.00;100069.29;3613803;79;99028;-87
2023/01/05 15:08:01;;;;;;;11.43;4.70;;;;;;;5.88;100.00;100079.67;3582630;80;31634;-88
2023/01/05 15:13:37;;;;;;;11.08;4.55;;;;;;;5.83;100.00;100099.09;3577777;81;98881;-86
2023/01/05 15:19:16;;;;;;;10.60;4.30;;;;;;;5.71;100.00;100105.39;3583792;81;25781;-93
2023/01/05 15:24:50;;;;;;;12.30;4.80;;;;;;;5.62;100.00;100118.41;3576555;80;98452;-96
2023/01/05 15:30:11;;;;;;;24.05;10.58;;;;;;;5.56;100.00;100129.37;3589926;81;31588;-92
2023/01/05 15:35:30;;;;;;;11.90;4.80;;;;;;;5.46;100.00;100141.38;3550732;80;98497;-96
2023/01/05 15:40:31;;;;;;;24.75;12.80;;;;;;;5.27;100.00;100135.22;3554650;82;32489;-91
2023/01/05 15:45:38;;;;;;;36.20;11.50;;;;;;;5.27;100.00;100160.34;3552463;82;98595;-96
2023/01/05 15:50:48;;;;;;;28.77;11.38;;;;;;;5.19;100.00;100168.89;3534394;82;25951;-94
2023/01/05 15:55:50;;;;;;;9.95;3.20;;;;;;;5.14;100.00;100175.18;3571546;81;98952;-93
2023/01/05 16:01:13;;;;;;;5.50;1.80;;;;;;;5.06;100.00;100177.47;3572112;81;31625;-90
2023/01/05 16:06:27;;;;;;;6.20;2.58;;;;;;;5.00;100.00;100195.21;3572354;81;31641;-89
2023/01/05 16:11:40;;;;;;;11.43;4.22;;;;;;;4.97;100.00;100214.42;3574330;80;98876;-93
2023/01/05 16:16:47;;;;;;;7.37;2.27;;;;;;;4.93;100.00;100232.63;3625655;80;31868;-94
2023/01/05 16:21:54;;;;;;;;;;;;;;;4.89;100.00;100248.09;3622073;80;97801;-94
2023/01/05 16:26:56;;;;;;;6.55;2.52;;;;;;;4.88;100.00;100251.14;3621830;80;31672;-94
2023/01/05 16:31:57;;;;;;;6.28;2.33;;;;;;;4.85;100.00;100264.89;3605494;80;98363;-93
2023/01/05 16:37:17;;;;;;;15.93;7.17;;;;;;;4.83;100.00;100284.09;3611272;81;35679;-91
2023/01/05 16:42:39;;;;;;;10.98;4.28;;;;;;;4.83;100.00;100299.90;3611220;80;98769;-89
2023/01/05 16:47:40;;;;;;;12.15;5.70;;;;;;;4.82;100.00;100307.05;3608222;81;32223;-90
2023/01/05 16:52:44;;;;;;;9.10;3.37;;;;;;;4.82;100.00;100320.12;3602085;81;98768;-88
2023/01/05 16:57:44;;;;;;;8.30;2.60;;;;;;;4.82;100.00;100335.67;3599562;81;29773;-90
2023/01/05 17:02:49;;;;;;;9.63;3.90;;;;;;;4.83;100.00;100335.34;3602330;81;98297;-90
2023/01/05 17:08:04;;;;;;;12.73;6.45;;;;;;;4.83;100.00;100346.25;3603031;81;30717;-90
2023/01/05 17:13:18;;;;;;;8.55;3.62;;;;;;;4.84;100.00;100345.66;3593543;80;98903;-91
2023/01/05 17:18:26;;;;;;;6.45;3.00;;;;;;;4.81;100.00;100361.36;3608273;80;32803;-90
2023/01/05 17:23:32;;;;;;;8.25;2.83;;;;;;;4.78;100.00;100378.38;3593647;81;98272;-91
2023/01/05 17:28:33;;;;;;;10.40;4.20;;;;;;;4.74;100.00;100387.03;3609558;81;25800;-90
2023/01/05 17:33:34;;;;;;;10.27;3.07;;;;;;;4.72;100.00;100388.73;3597874;81;98527;-89
2023/01/05 17:38:34;;;;;;;7.80;2.60;;;;;;;4.71;100.00;100391.23;3610986;81;35575;-94
2023/01/05 17:43:35;;;;;;;8.10;2.17;;;;;;;4.61;100.00;100399.84;3587554;81;98383;-90
2023/01/05 17:48:37;;;;;;;7.80;2.30;;;;;;;4.68;100.00;100417.78;3631416;80;36082;-90
2023/01/05 17:53:39;;;;;;;7.43;3.20;;;;;;;4.65;100.00;100414.95;3621030;80;98282;-93
2023/01/05 17:58:40;;;;;;;10.60;3.97;;;;;;;4.64;100.00;100426.40;3631784;80;34927;-92
2023/01/05 18:03:41;;;;;;;6.55;2.37;;;;;;;4.63;100.00;100430.85;3535253;82;98494;-93
2023/01/05 18:08:42;;;;;;;5.03;2.13;;;;;;;4.59;100.00;100442.19;3525447;83;35152;-93
2023/01/05 18:13:42;;;;;;;6.70;2.93;;;;;;;4.58;100.00;100461.82;3514515;81;98828;-91
2023/01/05 18:18:44;;;;;;;8.13;2.40;;;;;;;4.55;100.00;100463.06;3528884;80;35395;-92
2023/01/05 18:23:44;;;;;;;9.77;4.07;;;;;;;4.54;100.00;100476.47;3509711;82;98724;-94
2023/01/05 18:28:45;;;;;;;6.20;2.22;;;;;;;4.53;100.00;100479.74;3516159;83;35620;-92
2023/01/05 18:33:46;;;;;;;11.97;6.10;;;;;;;4.55;100.00;100491.13;3514263;82;98692;-90
2023/01/05 18:38:47;;;;;;;7.00;2.63;;;;;;;4.55;100.00;100495.22;3522939;82;32587;-89
2023/01/05 18:43:47;;;;;;;4.97;2.33;;;;;;;4.56;100.00;100504.17;3515224;82;98452;-89
2023/01/05 18:48:50;;;;;;;4.50;2.00;;;;;;;4.56;100.00;100511.80;3514940;83;32401;-87
2023/01/05 18:53:50;;;;;;;8.17;2.77;;;;;;;4.56;100.00;100525.97;3517599;82;98688;-89
2023/01/05 18:58:52;;;;;;;6.67;3.10;;;;;;;4.57;100.00;100535.19;3556889;82;32430;-88
2023/01/05 19:03:54;;;;;;;7.70;2.63;;;;;;;4.57;100.00;100539.83;3639976;79;98368;-88
2023/01/05 19:08:55;;;;;;;10.80;2.50;;;;;;;4.57;100.00;100552.90;3623572;80;32458;-93
2023/01/05 19:14:00;;;;;;;7.87;2.90;;;;;;;4.59;100.00;100560.17;3639937;79;98492;-93
2023/01/05 19:19:07;;;;;;;9.05;3.72;;;;;;;4.60;100.00;100562.34;3650626;79;34826;-92
2023/01/05 19:24:18;;;;;;;7.78;2.42;;;;;;;4.58;100.00;100574.16;3638108;79;98375;-92
2023/01/05 19:29:20;;;;;;;5.95;2.05;;;;;;;4.60;100.00;100585.51;3642602;79;35362;-91
2023/01/05 19:34:21;;;;;;;6.33;2.20;;;;;;;4.59;100.00;100594.23;3631412;79;98534;-89
2023/01/05 19:39:22;;;;;;;6.33;2.30;;;;;;;4.58;100.00;100594.59;3642977;79;26034;-93
2023/01/05 19:44:22;;;;;;;8.47;3.10;;;;;;;4.58;100.00;100600.83;3626250;80;98341;-96
2023/01/05 19:49:26;;;;;;;7.67;2.60;;;;;;;4.58;100.00;100608.22;3636649;79;32488;-93
2023/01/05 19:54:27;;;;;;;6.12;2.52;;;;;;;4.58;100.00;100619.13;3633058;80;98553;-95
2023/01/05 19:59:32;;;;;;;9.60;3.15;;;;;;;4.58;100.00;100630.02;3615813;80;34808;-92
2023/01/05 20:04:33;;;;;;;7.47;2.75;;;;;;;4.55;100.00;100634.21;3611535;80;98439;-90
2023/01/05 20:09:33;;;;;;;9.50;3.60;;;;;;;4.54;100.00;100653.61;3642736;79;25886;-93
2023/01/05 20:14:34;;;;;;;10.33;3.07;;;;;;;4.54;100.00;100658.48;3625717;79;97277;-90
2023/01/05 20:19:38;;;;;;;9.60;3.33;;;;;;;4.55;100.00;100662.02;3635857;80;32714;-92
2023/01/05 20:24:39;;;;;;;9.78;3.30;;;;;;;4.53;100.00;100667.80;3629932;80;98222;-91
2023/01/05 20:29:40;;;;;;;8.63;3.20;;;;;;;4.52;100.00;100682.55;3642258;80;27668;-90
2023/01/05 20:34:45;;;;;;;8.40;3.13;;;;;;;4.52;100.00;100683.11;3625896;80;98478;-91
2023/01/05 20:39:46;;;;;;;11.63;3.62;;;;;;;4.51;100.00;100691.86;3637265;80;34913;-92
2023/01/05 20:44:48;;;;;;;10.03;3.37;;;;;;;4.53;100.00;100698.36;3631101;80;98778;-90
2023/01/05 20:49:49;;;;;;;9.25;3.42;;;;;;;4.52;100.00;100715.81;3655470;79;35418;-93
2023/01/05 20:54:51;;;;;;;16.23;6.93;;;;;;;4.51;100.00;100730.02;3639841;80;98240;-89
2023/01/05 20:59:52;;;;;;;10.32;5.35;;;;;;;4.50;100.00;100733.88;3641363;79;32946;-89
2023/01/05 21:04:53;;;;;;;10.73;4.00;;;;;;;4.52;100.00;100756.69;3642155;79;98397;-90
2023/01/05 21:09:54;;;;;;;12.43;4.03;;;;;;;4.50;100.00;100752.14;3643039;80;33867;-90
2023/01/05 21:14:54;;;;;;;14.63;5.37;;;;;;;4.50;100.00;100762.50;3645812;79;98401;-93
2023/01/05 21:19:57;;;;;;;15.23;5.43;;;;;;;4.49;100.00;100769.08;3654417;79;32962;-89
2023/01/05 21:24:57;;;;;;;12.50;5.43;;;;;;;4.51;100.00;100778.27;3651217;80;98622;-90
2023/01/05 21:29:58;;;;;;;14.50;5.70;;;;;;;4.51;100.00;100795.43;3655287;79;32529;-92
2023/01/05 21:34:59;;;;;;;14.93;6.50;;;;;;;4.51;100.00;100806.88;3647150;79;98328;-91
2023/01/05 21:40:01;;;;;;;13.97;5.90;;;;;;;4.52;100.00;100825.64;3649457;79;32502;-88
2023/01/05 21:45:02;;;;;;;19.13;8.17;;;;;;;4.51;100.00;100832.77;3635342;79;98702;-89
2023/01/05 21:50:05;;;;;;;14.47;6.57;;;;;;;4.51;100.00;100834.13;3647586;79;32425;-89
2023/01/05 22:00:28;;;;;;;17.17;7.58;;;;;;;4.50;100.00;100850.25;3636446;81;34665;-87
2023/01/05 22:05:29;;;;;;;15.50;7.03;;;;;;;4.48;100.00;100853.30;3642519;80;97728;-87
2023/01/05 22:10:30;;;;;;;12.97;4.73;;;;;;;4.47;100.00;100853.07;3649823;80;33059;-91
2023/01/05 22:15:30;;;;;;;12.47;5.10;;;;;;;4.45;100.00;100853.16;3628810;80;98750;-90
2023/01/05 22:20:31;;;;;;;13.07;5.07;;;;;;;4.47;100.00;100868.06;3631993;80;33086;-91
2023/01/05 22:25:32;;;;;;;13.20;3.90;;;;;;;4.46;100.00;100871.10;3624696;80;98795;-91
2023/01/05 22:30:33;;;;;;;11.57;5.37;;;;;;;4.46;100.00;100881.45;3636755;80;33127;-88
2023/01/05 22:35:38;;;;;;;10.93;4.27;;;;;;;4.46;100.00;100882.00;3621002;80;98701;-93
2023/01/05 22:40:39;;;;;;;11.78;4.12;;;;;;;4.46;100.00;100891.55;3641394;80;33802;-89
2023/01/05 22:45:40;;;;;;;14.33;4.67;;;;;;;4.45;100.00;100891.31;3622488;80;98646;-92
2023/01/05 22:50:41;;;;;;;13.37;5.13;;;;;;;4.46;100.00;100905.17;3629257;80;32452;-89
2023/01/05 22:55:43;;;;;;;12.87;5.37;;;;;;;4.47;100.00;100900.77;3630571;80;98470;-92
2023/01/05 23:00:44;;;;;;;14.77;5.50;;;;;;;4.47;100.00;100907.58;3634457;80;32426;-91
2023/01/05 23:05:45;;;;;;;13.03;4.93;;;;;;;4.45;100.00;100916.65;3633348;80;98313;-88
2023/01/05 23:10:45;;;;;;;11.80;5.17;;;;;;;4.46;100.00;100920.97;3632373;80;32447;-93
2023/01/05 23:15:53;;;;;;;12.30;5.03;;;;;;;4.47;100.00;100937.55;3629353;80;98354;-93
2023/01/05 23:20:58;;;;;;;12.37;4.20;;;;;;;4.49;100.00;100939.96;3626779;80;35382;-94
2023/01/05 23:25:59;;;;;;;15.20;4.97;;;;;;;4.49;100.00;100946.78;3640113;80;98254;-90
2023/01/05 23:31:00;;;;;;;12.90;4.67;;;;;;;4.48;100.00;100945.97;3639145;80;26314;-92
2023/01/05 23:36:03;;;;;;;14.43;4.70;;;;;;;4.48;100.00;100954.14;3637419;80;98705;-91
2023/01/05 23:41:07;;;;;;;15.78;4.50;;;;;;;4.46;100.00;100954.22;3633680;80;98645;-92
2023/01/05 23:46:18;;;;;;;15.25;4.80;;;;;;;4.47;100.00;100959.36;3643257;80;34821;-92
2023/01/05 23:51:19;;;;;;;17.00;5.63;;;;;;;4.49;100.00;100969.39;3635134;80;98551;-93
2023/01/05 23:56:27;;;;;;;13.77;5.93;;;;;;;4.50;100.00;100971.54;3640691;80;25755;-92
